createdAt,value
2022-10-11T00:00:07.061Z,3.85
2022-10-11T00:03:09.798Z,3.53
2022-10-11T00:06:13.141Z,3.65
2022-10-11T00:09:16.326Z,3.67
2022-10-11T00:12:19.315Z,3.60
2022-10-11T00:15:22.950Z,3.28
2022-10-11T00:18:26.157Z,3.97
2022-10-11T00:21:29.393Z,2.97
2022-10-11T00:24:32.379Z,3.83
2022-10-11T00:27:36.340Z,3.22
2022-10-11T00:30:43.349Z,3.53
2022-10-11T00:33:47.702Z,3.00
2022-10-11T00:36:50.679Z,3.40
2022-10-11T00:39:53.388Z,3.50
2022-10-11T00:42:56.344Z,3.25
2022-10-11T00:46:03.297Z,2.87
2022-10-11T00:49:19.417Z,3.45
2022-10-11T00:52:41.133Z,3.50
2022-10-11T00:55:51.878Z,3.70
2022-10-11T00:58:55.978Z,3.08
2022-10-11T01:01:58.974Z,3.40
2022-10-11T01:05:27.755Z,3.70
2022-10-11T01:08:26.043Z,2.85
2022-10-11T01:11:29.906Z,3.50
2022-10-11T01:15:06.499Z,3.45
2022-10-11T01:18:15.214Z,3.20
2022-10-11T01:21:37.031Z,3.40
2022-10-11T01:24:55.052Z,3.35
2022-10-11T01:27:57.967Z,3.50
2022-10-11T01:31:08.729Z,3.22
2022-10-11T01:34:27.117Z,3.03
2022-10-11T01:37:43.845Z,3.53
2022-10-11T01:40:57.153Z,3.80
2022-10-11T01:44:01.333Z,3.40
2022-10-11T01:47:05.742Z,3.87
2022-10-11T01:50:48.984Z,3.40
2022-10-11T01:54:13.991Z,4.18
2022-10-11T01:57:44.825Z,3.95
2022-10-11T02:01:05.922Z,3.83
2022-10-11T02:04:21.575Z,4.70
2022-10-11T02:10:56.897Z,4.25
2022-10-11T02:14:16.397Z,4.40
2022-10-11T02:17:21.923Z,4.28
2022-10-11T02:23:39.709Z,4.57
2022-10-11T02:26:44.861Z,4.20
2022-10-11T02:29:49.342Z,4.50
2022-10-11T02:32:53.109Z,4.30
2022-10-11T02:36:01.389Z,5.10
2022-10-11T02:39:11.132Z,3.87
2022-10-11T02:42:45.860Z,4.10
2022-10-11T02:45:52.091Z,4.53
2022-10-11T02:48:55.177Z,4.60
2022-10-11T02:51:59.490Z,4.30
2022-10-11T02:55:02.479Z,4.45
2022-10-11T02:58:05.192Z,4.50
2022-10-11T03:01:08.229Z,4.65
2022-10-11T03:04:11.113Z,4.47
2022-10-11T03:07:14.918Z,4.68
2022-10-11T03:10:17.676Z,4.53
2022-10-11T03:13:20.710Z,4.78
2022-10-11T03:16:23.487Z,4.50
2022-10-11T03:19:26.709Z,5.40
2022-10-11T03:22:29.408Z,5.32
2022-10-11T03:25:32.495Z,4.40
2022-10-11T03:28:36.111Z,5.03
2022-10-11T03:31:39.142Z,5.12
2022-10-11T03:34:41.906Z,4.40
2022-10-11T03:37:45.855Z,4.68
2022-10-11T03:40:48.558Z,5.00
2022-10-11T03:43:51.611Z,5.20
2022-10-11T03:46:54.321Z,4.78
2022-10-11T03:49:57.326Z,4.93
2022-10-11T03:53:00.238Z,4.65
2022-10-11T03:56:08.346Z,4.40
2022-10-11T03:59:11.441Z,4.93
2022-10-11T04:02:14.535Z,6.10
2022-10-11T04:05:17.675Z,5.10
2022-10-11T04:08:21.659Z,5.18
2022-10-11T04:11:24.681Z,4.68
2022-10-11T04:14:28.687Z,5.57
2022-10-11T04:17:31.922Z,4.05
2022-10-11T04:20:34.785Z,4.30
2022-10-11T04:23:37.793Z,4.57
2022-10-11T04:26:40.527Z,4.35
2022-10-11T04:29:43.829Z,4.72
2022-10-11T04:32:46.567Z,4.40
2022-10-11T04:35:49.562Z,5.10
2022-10-11T04:38:52.328Z,3.97
2022-10-11T04:41:55.571Z,5.05
2022-10-11T04:44:58.765Z,5.50
2022-10-11T04:48:02.164Z,5.68
2022-10-11T04:51:05.555Z,5.78
2022-10-11T04:54:08.552Z,5.72
2022-10-11T04:57:11.640Z,5.35
2022-10-11T05:00:15.289Z,5.28
2022-10-11T05:03:18.466Z,4.97
2022-10-11T05:06:21.474Z,5.72
2022-10-11T05:09:24.227Z,6.20
2022-10-11T05:12:27.236Z,5.85
2022-10-11T05:15:29.915Z,5.82
2022-10-11T05:18:33.065Z,6.90
2022-10-11T05:21:35.786Z,5.85
2022-10-11T05:24:38.768Z,5.60
2022-10-11T05:27:41.918Z,6.07
2022-10-11T05:30:44.909Z,6.43
2022-10-11T05:33:47.729Z,6.20
2022-10-11T05:36:50.726Z,6.22
2022-10-11T05:39:54.057Z,6.82
2022-10-11T05:42:57.133Z,6.40
2022-10-11T05:45:59.894Z,6.10
2022-10-11T05:49:02.875Z,5.55
2022-10-11T05:52:09.122Z,6.62
2022-10-11T05:55:12.130Z,5.70
2022-10-11T05:58:15.358Z,6.12
2022-10-11T06:01:24.148Z,5.90
2022-10-11T06:04:27.517Z,6.60
2022-10-11T06:07:30.221Z,6.35
2022-10-11T06:10:34.222Z,8.02
2022-10-11T06:13:37.103Z,8.50
2022-10-11T06:16:40.734Z,7.68
2022-10-11T06:19:43.535Z,10.20
2022-10-11T06:22:46.595Z,9.98
2022-10-11T06:26:07.542Z,11.32
2022-10-11T06:29:11.110Z,8.82
2022-10-11T06:32:13.965Z,9.55
2022-10-11T06:35:17.093Z,9.80
2022-10-11T06:38:20.856Z,8.80
2022-10-11T06:41:26.475Z,8.77
2022-10-11T06:44:29.513Z,8.98
2022-10-11T06:47:32.582Z,8.43
2022-10-11T06:51:00.041Z,9.05
2022-10-11T06:54:03.791Z,8.75
2022-10-11T06:57:06.492Z,9.45
2022-10-11T07:00:12.663Z,8.98
2022-10-11T07:03:15.742Z,9.77
2022-10-11T07:06:21.884Z,9.20
2022-10-11T07:09:24.635Z,9.00
2022-10-11T07:12:29.004Z,9.45
2022-10-11T07:15:31.773Z,9.43
2022-10-11T07:18:36.075Z,8.90
2022-10-11T07:21:38.974Z,8.73
2022-10-11T07:24:41.989Z,9.57
2022-10-11T07:27:44.727Z,9.32
2022-10-11T07:30:48.203Z,9.63
2022-10-11T07:33:51.226Z,10.05
2022-10-11T07:36:54.356Z,10.15
2022-10-11T07:39:57.097Z,10.45
2022-10-11T07:43:00.944Z,10.68
2022-10-11T07:46:05.166Z,10.23
2022-10-11T07:49:08.553Z,11.25
2022-10-11T07:52:11.514Z,10.15
2022-10-11T07:55:14.934Z,11.80
2022-10-11T07:58:18.006Z,10.82
2022-10-11T08:01:21.385Z,10.00
2022-10-11T08:04:24.476Z,9.25
2022-10-11T08:07:28.334Z,9.13
2022-10-11T08:10:37.656Z,9.40
2022-10-11T08:13:40.808Z,8.90
2022-10-11T08:16:43.888Z,7.72
2022-10-11T08:19:46.593Z,6.62
2022-10-11T08:22:49.603Z,7.05
2022-10-11T08:25:56.534Z,5.47
2022-10-11T08:29:02.407Z,3.72
2022-10-11T08:32:05.514Z,3.53
2022-10-11T08:35:08.986Z,3.20
2022-10-11T08:38:12.111Z,2.97
2022-10-11T08:41:24.263Z,2.92
2022-10-11T08:45:10.023Z,2.90
2022-10-11T08:48:12.908Z,3.42
2022-10-11T08:51:21.240Z,3.60
2022-10-11T08:54:44.636Z,3.10
2022-10-11T08:57:55.947Z,3.22
2022-10-11T09:00:59.590Z,3.45
2022-10-11T09:04:03.725Z,4.10
2022-10-11T09:07:28.441Z,3.78
2022-10-11T09:10:40.286Z,3.70
2022-10-11T09:14:07.599Z,4.00
2022-10-11T09:17:33.421Z,3.70
2022-10-11T09:21:00.036Z,4.07
2022-10-11T09:24:36.733Z,4.15
2022-10-11T09:28:01.777Z,4.07
2022-10-11T09:31:11.210Z,4.05
2022-10-11T09:34:16.895Z,4.10
2022-10-11T09:37:38.049Z,4.75
2022-10-11T09:41:12.802Z,5.00
2022-10-11T09:44:48.811Z,4.90
2022-10-11T09:47:54.288Z,4.70
2022-10-11T09:51:04.280Z,4.45
2022-10-11T09:54:10.600Z,4.35
2022-10-11T09:57:36.823Z,4.20
2022-10-11T10:00:39.821Z,4.10
2022-10-11T10:03:44.215Z,4.75
2022-10-11T10:06:46.949Z,4.73
2022-10-11T10:09:51.675Z,4.50
2022-10-11T10:12:55.738Z,5.53
2022-10-11T10:15:59.376Z,6.37
2022-10-11T10:19:06.837Z,7.00
2022-10-11T10:22:18.103Z,6.50
2022-10-11T10:25:32.109Z,6.50
2022-10-11T10:28:36.035Z,6.80
2022-10-11T10:32:12.902Z,6.30
2022-10-11T10:35:15.564Z,7.70
2022-10-11T10:38:48.650Z,6.68
2022-10-11T10:41:55.542Z,6.28
2022-10-11T10:44:59.567Z,5.70
2022-10-11T10:48:14.571Z,6.12
2022-10-11T10:51:44.921Z,6.50
2022-10-11T10:55:14.215Z,6.28
2022-10-11T10:58:46.032Z,5.68
2022-10-11T11:02:16.029Z,6.10
2022-10-11T11:05:41.843Z,6.47
2022-10-11T11:09:00.554Z,6.03
2022-10-11T11:12:10.784Z,5.97
2022-10-11T11:15:37.785Z,6.07
2022-10-11T11:18:49.024Z,6.57
2022-10-11T11:22:17.223Z,6.10
2022-10-11T11:25:25.359Z,6.95
2022-10-11T11:28:38.410Z,6.43
2022-10-11T11:31:44.336Z,6.15
2022-10-11T11:35:27.482Z,6.40
2022-10-11T11:38:58.001Z,5.45
2022-10-11T11:42:16.379Z,6.45
2022-10-11T11:45:24.292Z,5.78
2022-10-11T11:48:27.425Z,6.10
2022-10-11T11:51:41.200Z,6.75
2022-10-11T11:54:58.042Z,7.15
2022-10-11T11:58:23.039Z,6.30
2022-10-11T12:01:31.732Z,5.72
2022-10-11T12:04:37.212Z,5.65
2022-10-11T12:08:07.205Z,6.03
2022-10-11T12:11:26.107Z,5.72
2022-10-11T12:14:34.984Z,5.60
2022-10-11T12:17:56.139Z,5.07
2022-10-11T12:21:19.373Z,4.72
2022-10-11T12:24:26.562Z,5.30
2022-10-11T12:27:41.915Z,5.30
2022-10-11T12:30:47.026Z,5.20
2022-10-11T12:34:03.842Z,4.95
2022-10-11T12:37:20.085Z,5.07
2022-10-11T12:41:00.658Z,5.43
2022-10-11T12:44:09.872Z,5.15
2022-10-11T12:47:31.993Z,4.72
2022-10-11T12:50:50.369Z,4.47
2022-10-11T12:54:25.909Z,5.10
2022-10-11T12:57:51.765Z,4.80
2022-10-11T13:00:58.017Z,4.90
2022-10-11T13:04:08.792Z,4.90
2022-10-11T13:07:16.146Z,4.78
2022-10-11T13:10:36.885Z,4.22
2022-10-11T13:13:42.940Z,4.82
2022-10-11T13:16:51.630Z,4.72
2022-10-11T13:20:18.309Z,4.75
2022-10-11T13:23:36.011Z,4.32
2022-10-11T13:26:39.230Z,4.45
2022-10-11T13:29:44.992Z,4.60
2022-10-11T13:32:47.805Z,4.15
2022-10-11T13:35:50.997Z,4.30
2022-10-11T13:39:01.332Z,3.75
2022-10-11T13:42:10.950Z,3.85
2022-10-11T13:45:16.331Z,3.95
2022-10-11T13:48:19.345Z,4.60
2022-10-11T13:51:37.813Z,3.62
2022-10-11T13:54:58.764Z,4.82
2022-10-11T13:58:06.804Z,3.40
2022-10-11T14:01:35.660Z,4.18
2022-10-11T14:04:40.300Z,3.58
2022-10-11T14:07:43.042Z,4.40
2022-10-11T14:10:47.466Z,3.80
2022-10-11T14:16:58.677Z,3.30
2022-10-11T14:20:19.804Z,3.75
2022-10-11T14:23:22.807Z,3.78
2022-10-11T14:26:26.221Z,3.60
2022-10-11T14:29:32.452Z,3.72
2022-10-11T14:32:36.520Z,3.40
2022-10-11T14:35:41.707Z,3.92
2022-10-11T14:38:44.434Z,4.05
2022-10-11T14:41:47.457Z,3.97
2022-10-11T14:44:50.344Z,4.20
2022-10-11T14:47:53.643Z,4.05
2022-10-11T14:50:59.199Z,4.30
2022-10-11T14:54:02.176Z,3.97
2022-10-11T14:57:05.174Z,4.00
2022-10-11T15:00:17.256Z,3.92
2022-10-11T15:03:20.106Z,3.58
2022-10-11T15:06:36.859Z,4.25
2022-10-11T15:09:39.871Z,3.60
2022-10-11T15:12:42.846Z,4.03
2022-10-11T15:15:45.605Z,4.00
2022-10-11T15:18:51.086Z,3.83
2022-10-11T15:21:53.841Z,3.80
2022-10-11T15:24:56.924Z,3.83
2022-10-11T15:28:00.841Z,4.30
2022-10-11T15:34:07.489Z,4.43
2022-10-11T15:37:10.565Z,4.32
2022-10-11T15:40:21.301Z,3.92
2022-10-11T15:43:25.297Z,4.47
2022-10-11T15:46:28.241Z,4.93
2022-10-11T15:49:31.511Z,5.43
2022-10-11T15:52:34.239Z,5.82
2022-10-11T15:55:40.314Z,5.93
2022-10-11T15:58:43.395Z,5.72
2022-10-11T16:01:47.102Z,5.70
2022-10-11T16:04:50.151Z,5.43
2022-10-11T16:07:53.917Z,5.18
2022-10-11T16:10:57.472Z,5.78
2022-10-11T16:14:00.224Z,5.87
2022-10-11T16:17:05.622Z,5.65
2022-10-11T16:20:08.821Z,6.30
2022-10-11T16:23:12.834Z,6.55
2022-10-11T16:26:16.723Z,6.30
2022-10-11T16:29:19.735Z,7.25
2022-10-11T16:32:24.421Z,6.65
2022-10-11T16:35:32.282Z,6.75
2022-10-11T16:38:35.910Z,6.97
2022-10-11T16:41:41.940Z,7.00
2022-10-11T16:44:45.837Z,7.50
2022-10-11T16:47:48.902Z,7.80
2022-10-11T16:50:51.611Z,7.30
2022-10-11T16:53:54.645Z,7.57
2022-10-11T16:56:58.688Z,7.00
2022-10-11T17:00:01.785Z,7.95
2022-10-11T17:03:04.575Z,7.12
2022-10-11T17:06:08.609Z,8.25
2022-10-11T17:09:11.974Z,8.30
2022-10-11T17:12:17.154Z,7.40
2022-10-11T17:18:23.552Z,7.00
2022-10-11T17:21:27.451Z,6.90
2022-10-11T17:24:30.455Z,7.12
2022-10-11T17:27:33.989Z,6.82
2022-10-11T17:30:38.120Z,7.03
2022-10-11T17:33:40.930Z,7.07
2022-10-11T17:36:44.317Z,8.23
2022-10-11T17:39:47.305Z,7.15
2022-10-11T17:42:50.825Z,8.25
2022-10-11T17:46:01.551Z,8.30
2022-10-11T17:49:06.461Z,7.53
2022-10-11T17:52:09.925Z,8.25
2022-10-11T17:55:14.846Z,7.43
2022-10-11T17:58:18.962Z,7.55
2022-10-11T18:01:24.867Z,14.95
2022-10-11T18:04:30.405Z,10.30
2022-10-11T18:07:33.349Z,9.15
2022-10-11T18:10:37.022Z,8.82
2022-10-11T18:13:46.479Z,8.23
2022-10-11T18:16:50.540Z,8.23
2022-10-11T18:19:53.839Z,7.62
2022-10-11T18:22:57.233Z,8.05
2022-10-11T18:26:00.076Z,8.48
2022-10-11T18:29:04.800Z,7.60
2022-10-11T18:32:08.500Z,7.80
2022-10-11T18:35:11.726Z,7.83
2022-10-11T18:38:15.275Z,7.65
2022-10-11T18:41:21.447Z,7.20
2022-10-11T18:44:24.926Z,7.57
2022-10-11T18:50:35.067Z,7.30
2022-10-11T18:53:38.741Z,7.40
2022-10-11T18:56:41.706Z,8.57
2022-10-11T18:59:44.992Z,8.35
2022-10-11T19:02:47.881Z,7.47
2022-10-11T19:05:51.337Z,7.57
2022-10-11T19:08:56.735Z,7.68
2022-10-11T19:11:59.926Z,7.78
2022-10-11T19:15:03.030Z,8.43
2022-10-11T19:18:08.429Z,7.95
2022-10-11T19:21:12.984Z,7.07
2022-10-11T19:24:19.020Z,8.23
2022-10-11T19:27:22.441Z,9.70
2022-10-11T19:30:26.598Z,8.02
2022-10-11T19:33:32.185Z,7.45
2022-10-11T19:36:36.839Z,7.15
2022-10-11T19:39:41.096Z,7.62
2022-10-11T19:42:44.878Z,7.93
2022-10-11T19:45:48.329Z,8.20
2022-10-11T19:48:52.777Z,8.80
2022-10-11T19:51:57.265Z,8.07
2022-10-11T19:55:00.435Z,8.23
2022-10-11T19:58:08.163Z,8.43
2022-10-11T20:01:18.072Z,9.57
2022-10-11T20:07:44.453Z,9.45
2022-10-11T20:10:48.027Z,8.80
2022-10-11T20:13:53.672Z,8.50
2022-10-11T20:16:56.714Z,8.73
2022-10-11T20:19:59.428Z,8.93
2022-10-11T20:23:02.613Z,9.15
2022-10-11T20:26:06.667Z,8.48
2022-10-11T20:29:09.773Z,8.37
2022-10-11T20:32:13.507Z,9.25
2022-10-11T20:35:16.618Z,9.38
2022-10-11T20:38:19.399Z,9.43
2022-10-11T20:41:25.196Z,9.38
2022-10-11T20:44:28.007Z,10.00
2022-10-11T20:47:31.426Z,8.90
2022-10-11T20:50:34.973Z,9.65
2022-10-11T20:53:38.851Z,10.40
2022-10-11T20:56:41.646Z,10.45
2022-10-11T20:59:45.257Z,9.63
2022-10-11T21:02:50.666Z,9.45
2022-10-11T21:06:00.398Z,10.27
2022-10-11T21:09:03.382Z,10.77
2022-10-11T21:12:06.601Z,10.65
2022-10-11T21:15:09.441Z,10.02
2022-10-11T21:18:13.192Z,11.77
2022-10-11T21:21:15.909Z,12.30
2022-10-11T21:24:19.448Z,11.27
2022-10-11T21:27:22.129Z,10.55
2022-10-11T21:30:26.247Z,10.80
2022-10-11T21:33:30.267Z,11.57
2022-10-11T21:36:33.756Z,11.53
2022-10-11T21:39:36.516Z,10.80
2022-10-11T21:42:39.584Z,10.88
2022-10-11T21:45:42.410Z,10.80
2022-10-11T21:48:45.828Z,10.65
2022-10-11T21:51:48.586Z,11.12
2022-10-11T21:54:51.565Z,10.88
2022-10-11T21:57:55.466Z,11.85
2022-10-11T22:00:58.610Z,11.30
2022-10-11T22:04:01.648Z,11.50
2022-10-11T22:07:04.678Z,10.57
2022-10-11T22:10:08.472Z,11.00
2022-10-11T22:13:12.000Z,11.32
2022-10-11T22:16:15.638Z,11.68
2022-10-11T22:19:18.386Z,12.80
2022-10-11T22:22:21.371Z,12.93
2022-10-11T22:25:24.214Z,13.52
2022-10-11T22:28:27.259Z,13.02
2022-10-11T22:31:30.399Z,12.98
2022-10-11T22:34:33.960Z,12.68
2022-10-11T22:37:37.239Z,15.13
2022-10-11T22:40:40.466Z,14.77
2022-10-11T22:43:43.996Z,13.70
2022-10-11T22:46:47.066Z,14.48
2022-10-11T22:49:50.480Z,13.88
2022-10-11T22:52:53.466Z,14.05
2022-10-11T22:55:56.431Z,14.50
2022-10-11T22:59:00.013Z,13.18
2022-10-11T23:02:02.897Z,13.88
2022-10-11T23:05:06.025Z,13.70
2022-10-11T23:08:09.809Z,15.20
2022-10-11T23:11:12.857Z,14.02
2022-10-11T23:14:15.643Z,13.52
2022-10-11T23:17:18.920Z,13.35
2022-10-11T23:20:21.859Z,13.55
2022-10-11T23:23:25.903Z,13.90
2022-10-11T23:26:28.869Z,13.45
2022-10-11T23:29:33.196Z,14.53
2022-10-11T23:32:36.646Z,12.32
2022-10-11T23:35:39.675Z,13.05
2022-10-11T23:38:42.535Z,12.32
2022-10-11T23:41:45.569Z,13.10
2022-10-11T23:44:48.414Z,13.38
2022-10-11T23:47:51.534Z,12.75
2022-10-11T23:50:54.276Z,12.93
2022-10-11T23:53:57.455Z,13.23
2022-10-11T23:57:00.208Z,12.45
